Time;durP1;ratioP1;P1;durP2;ratioP2;P2;SDS_P1;SDS_P2;PMS_P1;PMS_P2;Temp;Humidity;BMP_temperature;BMP_pressure;BME280_temperature;BME280_humidity;BME280_pressure;Samples;Min_cycle;Max_cycle;Signal;HPM_P1;HPM_P2
2022/06/04 00:01:44;;;;;;;6.90;6.20;;;;;;;19.33;92.84;100410.97;5054661;28;20412;-75
2022/06/04 00:04:13;;;;;;;7.13;6.03;;;;;;;19.30;93.37;100406.72;5035864;28;20697;-76
2022/06/04 00:06:41;;;;;;;7.60;6.68;;;;;;;19.23;94.25;100403.66;5044480;28;20476;-74
2022/06/04 00:09:09;;;;;;;6.55;5.93;;;;;;;19.24;94.01;100408.06;5050654;28;20075;-74
2022/06/04 00:17:13;;;;;;;7.25;6.03;;;;;;;19.18;94.04;100388.94;5055041;28;20453;-74
2022/06/04 00:19:41;;;;;;;6.72;5.65;;;;;;;19.17;93.71;100387.25;5059278;28;20157;-75
2022/06/04 00:22:08;;;;;;;7.63;5.85;;;;;;;19.01;93.72;100365.31;5048403;28;20165;-75
2022/06/04 00:24:35;;;;;;;7.65;5.60;;;;;;;19.11;93.19;100383.22;5059021;28;20044;-75
2022/06/04 00:27:02;;;;;;;5.85;5.18;;;;;;;19.05;93.18;100378.34;5054650;28;20076;-74
2022/06/04 00:29:32;;;;;;;6.43;5.00;;;;;;;19.09;92.73;100374.44;5057388;28;20072;-74
2022/06/04 00:31:59;;;;;;;5.95;5.40;;;;;;;19.02;92.70;100359.84;5048634;28;20485;-75
2022/06/04 00:34:26;;;;;;;5.88;5.38;;;;;;;19.03;92.69;100372.28;5051289;28;20148;-74
2022/06/04 00:36:53;;;;;;;5.82;5.07;;;;;;;19.01;92.68;100366.19;5027152;28;20052;-75
2022/06/04 00:39:20;;;;;;;11.50;5.43;;;;;;;19.00;92.55;100358.25;5057278;28;20099;-74
2022/06/04 00:41:57;;;;;;;5.80;5.30;;;;;;;18.89;93.13;100356.44;5062976;28;20106;-75
2022/06/04 00:44:30;;;;;;;6.63;5.93;;;;;;;18.89;93.79;100367.16;5058878;28;20083;-75
2022/06/04 00:47:22;;;;;;;6.43;5.82;;;;;;;18.80;94.09;100376.84;5056161;28;20060;-74
2022/06/04 00:49:49;;;;;;;5.63;5.15;;;;;;;18.60;94.79;100357.97;5060699;28;20064;-75
2022/06/04 00:52:16;;;;;;;6.57;5.88;;;;;;;18.71;95.56;100379.41;5054697;28;20111;-74
2022/06/04 00:54:46;;;;;;;7.43;6.18;;;;;;;18.66;95.50;100379.78;5063443;28;20125;-75
2022/06/04 00:57:31;;;;;;;6.53;5.55;;;;;;;18.66;95.61;100382.47;5045496;28;20045;-74
2022/06/04 01:00:22;;;;;;;5.18;4.78;;;;;;;18.58;95.69;100372.34;5061375;28;20513;-74
2022/06/04 01:03:06;;;;;;;6.57;5.88;;;;;;;18.55;95.81;100382.44;5044959;28;20064;-73
2022/06/04 01:06:10;;;;;;;6.40;5.80;;;;;;;18.47;96.73;100388.41;5052845;28;20144;-74
2022/06/04 01:08:52;;;;;;;7.57;6.05;;;;;;;18.45;96.96;100390.38;5057107;28;20045;-74
2022/06/04 01:11:27;;;;;;;7.03;6.00;;;;;;;18.47;97.50;100387.56;5058558;28;20056;-75
2022/06/04 01:14:06;;;;;;;6.13;5.53;;;;;;;18.52;97.14;100396.09;5054672;28;20086;-74
2022/06/04 01:16:51;;;;;;;6.22;5.70;;;;;;;18.49;97.49;100396.34;5050801;28;20130;-74
2022/06/04 01:19:33;;;;;;;7.13;6.22;;;;;;;18.50;97.04;100398.91;5051288;28;20106;-74
2022/06/04 01:22:11;;;;;;;6.35;5.75;;;;;;;18.49;97.14;100410.59;5046153;28;20404;-76
2022/06/04 01:24:49;;;;;;;6.47;5.88;;;;;;;18.50;97.37;100409.63;5053063;28;20040;-74
2022/06/04 01:27:24;;;;;;;7.18;6.50;;;;;;;18.51;97.56;100410.47;5054401;28;20056;-74
2022/06/04 01:30:04;;;;;;;7.47;6.63;;;;;;;18.49;97.61;100407.91;5048446;28;20061;-74
2022/06/04 01:32:34;;;;;;;;;;;;;;;18.54;97.74;100420.97;5055371;28;20509;-74
2022/06/04 01:35:05;;;;;;;7.28;6.43;;;;;;;18.56;97.60;100421.72;5049879;28;19925;-74
2022/06/04 01:37:56;;;;;;;6.95;6.03;;;;;;;18.55;97.32;100420.84;5046816;28;20044;-74
2022/06/04 01:43:19;;;;;;;7.90;6.28;;;;;;;18.41;96.79;100398.78;5047994;28;20493;-74
2022/06/04 01:45:47;;;;;;;7.15;6.05;;;;;;;18.49;97.04;100426.69;5060230;28;20438;-74
2022/06/04 01:48:18;;;;;;;6.22;5.72;;;;;;;18.46;97.20;100418.03;5050200;28;20102;-74
2022/06/04 01:50:49;;;;;;;;;;;;;;;18.45;96.32;100421.69;5055429;28;20057;-74
2022/06/04 01:53:20;;;;;;;9.10;6.40;;;;;;;18.40;96.79;100413.16;5048278;28;19924;-73
2022/06/04 01:55:59;;;;;;;;;;;;;;;18.35;96.74;100410.84;5054691;28;20091;-74
2022/06/04 01:58:32;;;;;;;7.15;6.50;;;;;;;18.27;97.46;100409.72;5052865;28;19928;-74
2022/06/04 02:01:05;;;;;;;7.85;6.75;;;;;;;18.28;97.67;100406.94;5051262;28;20121;-74
2022/06/04 02:03:38;;;;;;;6.75;5.70;;;;;;;18.23;97.84;100406.47;5052552;28;20063;-74
2022/06/04 02:06:35;;;;;;;6.88;6.20;;;;;;;18.22;97.47;100404.75;5045244;28;20060;-74
2022/06/04 02:09:09;;;;;;;7.35;6.70;;;;;;;18.20;97.33;100412.06;5043695;28;20102;-74
2022/06/04 02:11:38;;;;;;;7.18;6.45;;;;;;;18.00;97.66;100384.13;5054421;28;20498;-74
2022/06/04 02:14:07;;;;;;;7.38;6.78;;;;;;;18.06;98.16;100391.69;5054248;28;20052;-75
2022/06/04 02:16:53;;;;;;;7.80;7.07;;;;;;;18.01;98.34;100388.50;5051423;28;20084;-74
2022/06/04 02:19:20;;;;;;;8.00;7.20;;;;;;;17.85;98.56;100370.09;5052562;28;20146;-76
2022/06/04 02:21:47;;;;;;;7.85;7.13;;;;;;;17.87;99.21;100372.66;5048179;28;20044;-73
2022/06/04 02:24:13;;;;;;;9.15;7.43;;;;;;;17.90;99.62;100384.97;5054532;28;20497;-74
2022/06/04 02:26:44;;;;;;;8.68;7.40;;;;;;;17.81;99.72;100365.94;5050015;28;20045;-74
2022/06/04 02:29:11;;;;;;;8.73;7.93;;;;;;;17.85;100.00;100375.44;5048411;28;20048;-73
2022/06/04 02:32:21;;;;;;;8.52;7.65;;;;;;;17.84;100.00;100368.38;5048436;28;20044;-73
2022/06/04 02:35:02;;;;;;;9.48;8.48;;;;;;;17.82;100.00;100378.38;5044853;28;20076;-73
2022/06/04 02:37:45;;;;;;;;;;;;;;;17.80;100.00;100369.59;5049740;28;20045;-74
2022/06/04 02:40:18;;;;;;;8.98;8.07;;;;;;;17.75;100.00;100374.47;5053449;28;21448;-74
2022/06/04 02:42:52;;;;;;;8.27;7.50;;;;;;;17.69;100.00;100364.22;5044940;28;20129;-75
2022/06/04 02:45:38;;;;;;;9.00;8.20;;;;;;;17.67;100.00;100367.97;5049720;28;20109;-75
2022/06/04 02:48:18;;;;;;;8.27;7.45;;;;;;;17.52;100.00;100352.09;5054804;28;20198;-73
2022/06/04 02:50:51;;;;;;;7.72;6.90;;;;;;;17.52;100.00;100364.63;5045760;28;20068;-74
2022/06/04 02:53:18;;;;;;;10.63;7.88;;;;;;;17.44;100.00;100356.34;5049770;28;20324;-74
2022/06/04 02:55:54;;;;;;;8.45;7.68;;;;;;;17.46;100.00;100365.09;5052227;28;20511;-74
2022/06/04 02:58:22;;;;;;;8.25;7.40;;;;;;;17.50;100.00;100374.59;5030824;28;20059;-76
2022/06/04 03:00:54;;;;;;;9.05;7.65;;;;;;;17.52;100.00;100376.19;5051987;28;20048;-75
2022/06/04 03:03:21;;;;;;;8.82;7.38;;;;;;;17.53;100.00;100372.53;5050497;28;20118;-73
2022/06/04 03:05:59;;;;;;;9.00;8.20;;;;;;;17.50;100.00;100371.91;5056251;28;20068;-74
2022/06/04 03:08:28;;;;;;;7.68;6.80;;;;;;;17.49;100.00;100372.88;5046872;28;20053;-74
2022/06/04 03:10:55;;;;;;;8.80;7.88;;;;;;;17.44;100.00;100372.41;5050168;28;20136;-74
2022/06/04 03:13:21;;;;;;;9.82;8.93;;;;;;;17.48;100.00;100369.34;5056449;28;20087;-75
2022/06/04 03:15:48;;;;;;;9.80;8.90;;;;;;;17.41;100.00;100360.09;5050849;28;20136;-75
2022/06/04 03:18:16;;;;;;;9.98;8.68;;;;;;;17.26;100.00;100347.88;5052942;28;20054;-74
2022/06/04 03:20:43;;;;;;;10.48;9.15;;;;;;;17.30;100.00;100359.19;5058168;28;20052;-74
2022/06/04 03:23:14;;;;;;;;;;;;;;;17.30;100.00;100370.75;5046989;28;20056;-74
2022/06/04 03:25:40;;;;;;;10.27;9.30;;;;;;;17.27;100.00;100364.78;5047673;28;20390;-74
2022/06/04 03:28:08;;;;;;;10.35;9.35;;;;;;;17.21;100.00;100366.09;5044590;28;21373;-74
2022/06/04 03:30:35;;;;;;;10.55;9.50;;;;;;;17.28;100.00;100386.06;5049182;28;20049;-75
2022/06/04 03:33:03;;;;;;;12.48;10.65;;;;;;;17.29;100.00;100386.94;5047035;28;20049;-74
2022/06/04 03:35:30;;;;;;;11.10;9.82;;;;;;;17.27;100.00;100388.88;5046221;28;20049;-75
2022/06/04 03:37:57;;;;;;;10.52;9.43;;;;;;;17.30;100.00;100386.81;5046246;28;20409;-74
2022/06/04 03:40:23;;;;;;;9.85;9.00;;;;;;;17.35;100.00;100378.41;5050054;28;20080;-75
2022/06/04 03:42:50;;;;;;;11.25;9.95;;;;;;;17.36;100.00;100381.00;5044583;28;20094;-74
2022/06/04 03:45:16;;;;;;;10.23;9.20;;;;;;;17.40;100.00;100370.91;5052566;28;20437;-74
2022/06/04 03:47:43;;;;;;;12.02;10.05;;;;;;;17.34;100.00;100355.31;5055494;28;20515;-74
2022/06/04 03:50:16;;;;;;;10.48;9.13;;;;;;;17.31;100.00;100358.22;5056211;28;20158;-75
2022/06/04 03:52:44;;;;;;;10.10;9.10;;;;;;;17.32;100.00;100376.81;5031109;28;20073;-73
2022/06/04 03:55:12;;;;;;;10.80;9.35;;;;;;;17.47;100.00;100393.59;5050523;28;20053;-74
2022/06/04 03:57:41;;;;;;;10.13;8.90;;;;;;;17.49;100.00;100399.66;5048667;28;20045;-73
2022/06/04 04:00:13;;;;;;;10.50;8.45;;;;;;;17.52;100.00;100392.25;5046921;28;20056;-74
2022/06/04 04:02:43;;;;;;;12.35;8.93;;;;;;;17.50;100.00;100380.78;5044141;28;20115;-75
2022/06/04 04:05:14;;;;;;;9.98;9.10;;;;;;;17.62;100.00;100403.13;5049600;28;20065;-74
2022/06/04 04:07:40;;;;;;;;;;;;;;;17.72;100.00;100408.66;5050020;28;20448;-73
2022/06/04 04:10:09;;;;;;;9.30;8.40;;;;;;;17.78;100.00;100421.59;5049694;28;19932;-74
2022/06/04 04:12:36;;;;;;;11.10;8.43;;;;;;;17.80;100.00;100417.81;5050359;28;20098;-73
2022/06/04 04:15:03;;;;;;;12.63;7.80;;;;;;;17.86;100.00;100425.38;5053323;28;20402;-75
2022/06/04 04:17:30;;;;;;;10.70;8.55;;;;;;;17.90;100.00;100419.78;5058164;28;20049;-75
2022/06/04 04:19:57;;;;;;;10.32;8.38;;;;;;;17.74;100.00;100396.00;5056057;28;20065;-75
2022/06/04 04:22:24;;;;;;;9.70;8.05;;;;;;;17.87;99.91;100432.44;5054836;28;20658;-75
2022/06/04 04:24:51;;;;;;;8.80;8.00;;;;;;;17.87;99.81;100447.66;5055810;28;20059;-74
2022/06/04 04:27:18;;;;;;;9.80;7.95;;;;;;;17.86;100.00;100452.16;5057442;28;20118;-74
2022/06/04 04:29:44;;;;;;;8.95;8.00;;;;;;;17.81;100.00;100438.25;5053897;28;20055;-74
2022/06/04 04:32:11;;;;;;;7.93;7.22;;;;;;;17.74;100.00;100422.78;5053842;28;20099;-74
2022/06/04 04:34:38;;;;;;;9.27;7.88;;;;;;;17.94;100.00;100458.78;5047444;28;20075;-74
2022/06/04 04:37:05;;;;;;;8.07;7.38;;;;;;;17.94;99.73;100448.06;5052519;28;20072;-74
2022/06/04 04:39:31;;;;;;;8.32;7.63;;;;;;;17.93;99.10;100441.84;5056071;28;20057;-74
2022/06/04 04:41:58;;;;;;;7.95;7.25;;;;;;;17.98;99.27;100445.00;5051207;28;20123;-74
2022/06/04 04:44:25;;;;;;;8.63;7.72;;;;;;;18.00;98.85;100432.34;5051453;28;20118;-74
2022/06/04 04:46:52;;;;;;;8.20;7.50;;;;;;;18.04;98.30;100432.97;5052873;28;20061;-74
2022/06/04 04:49:20;;;;;;;8.15;7.45;;;;;;;18.11;97.94;100442.22;5051381;28;20528;-75
2022/06/04 04:51:47;;;;;;;8.88;7.95;;;;;;;18.19;97.14;100445.19;5056233;28;20410;-73
2022/06/04 04:54:15;;;;;;;8.65;7.00;;;;;;;18.33;96.67;100441.44;5057617;28;20136;-74
2022/06/04 04:56:42;;;;;;;8.23;7.43;;;;;;;18.47;95.89;100449.22;5053347;28;20794;-74
2022/06/04 04:59:10;;;;;;;7.55;6.85;;;;;;;18.64;95.26;100447.94;5056902;28;20054;-74
2022/06/04 05:01:37;;;;;;;7.50;6.90;;;;;;;18.64;94.29;100432.69;5050174;28;20464;-74
2022/06/04 05:04:04;;;;;;;8.13;7.28;;;;;;;18.91;92.70;100457.28;5048562;28;20045;-74
2022/06/04 05:06:31;;;;;;;9.05;7.40;;;;;;;18.83;90.78;100445.50;5049980;28;20492;-74
2022/06/04 05:08:58;;;;;;;8.18;7.32;;;;;;;18.91;91.16;100465.34;5052155;28;20212;-74
2022/06/04 05:11:27;;;;;;;7.93;7.15;;;;;;;18.89;90.90;100478.03;5051566;28;20151;-75
2022/06/04 05:13:56;;;;;;;7.28;6.40;;;;;;;18.92;91.40;100477.78;5055142;28;20860;-74
2022/06/04 05:16:26;;;;;;;7.80;7.00;;;;;;;18.97;91.01;100487.31;5050466;28;20061;-76
2022/06/04 05:18:53;;;;;;;7.22;6.53;;;;;;;18.98;91.22;100489.88;5051263;28;20093;-74
2022/06/04 05:21:26;;;;;;;8.05;6.78;;;;;;;19.05;91.09;100506.31;5051203;28;20044;-74
2022/06/04 05:23:54;;;;;;;8.07;7.25;;;;;;;19.02;91.08;100480.59;5048566;28;20060;-74
2022/06/04 05:26:23;;;;;;;7.55;6.85;;;;;;;19.20;90.17;100499.75;5048739;28;20553;-74
2022/06/04 05:28:50;;;;;;;6.85;6.25;;;;;;;19.14;89.97;100484.97;5060032;28;20910;-74
2022/06/04 05:31:18;;;;;;;7.30;6.70;;;;;;;19.32;88.88;100519.38;5056103;28;20148;-74
2022/06/04 05:33:46;;;;;;;6.82;6.10;;;;;;;19.25;88.64;100495.69;5044243;28;20053;-76
2022/06/04 05:36:12;;;;;;;6.53;6.00;;;;;;;19.44;88.06;100492.34;5050028;28;20063;-73
2022/06/04 05:38:41;;;;;;;19.20;8.38;;;;;;;19.73;86.73;100516.84;5046980;28;20042;-72
2022/06/04 05:41:10;;;;;;;6.75;6.05;;;;;;;19.78;86.24;100495.81;5043524;28;20098;-75
2022/06/04 05:43:40;;;;;;;6.97;6.30;;;;;;;19.99;85.11;100517.31;5051201;28;20456;-74
2022/06/04 05:46:12;;;;;;;7.13;6.40;;;;;;;20.03;83.33;100510.72;5053388;28;20409;-74
2022/06/04 05:48:40;;;;;;;7.10;6.05;;;;;;;20.03;83.46;100510.72;5051525;28;20036;-74
2022/06/04 05:51:10;;;;;;;7.05;6.38;;;;;;;20.09;83.16;100499.47;5046725;28;20119;-75
2022/06/04 05:53:37;;;;;;;9.52;6.93;;;;;;;20.12;81.98;100509.97;5052605;28;20053;-75
2022/06/04 05:56:11;;;;;;;6.88;6.22;;;;;;;20.11;82.32;100512.78;5056962;28;20071;-75
2022/06/04 05:58:38;;;;;;;7.72;6.93;;;;;;;20.13;81.98;100516.19;5054933;28;20144;-75
2022/06/04 06:01:05;;;;;;;6.10;5.60;;;;;;;20.25;82.54;100512.44;5060014;28;20120;-74
2022/06/04 06:03:33;;;;;;;5.90;5.40;;;;;;;20.37;81.75;100506.03;5051941;28;20234;-74
2022/06/04 06:06:01;;;;;;;6.82;6.25;;;;;;;20.54;79.36;100510.81;5052260;28;20329;-74
2022/06/04 06:08:48;;;;;;;7.38;5.55;;;;;;;20.69;79.32;100519.41;5037697;28;20075;-74
2022/06/04 06:11:17;;;;;;;6.00;5.50;;;;;;;20.82;78.44;100520.03;5045069;28;20485;-75
2022/06/04 06:13:45;;;;;;;6.45;5.55;;;;;;;21.01;78.50;100527.34;5046657;28;20057;-76
2022/06/04 06:16:25;;;;;;;8.85;5.82;;;;;;;21.29;76.97;100528.47;5046256;28;20041;-75
2022/06/04 06:18:52;;;;;;;6.43;5.82;;;;;;;21.39;74.88;100523.13;5048129;28;20045;-76
2022/06/04 06:21:21;;;;;;;7.13;5.88;;;;;;;21.31;75.08;100497.72;5054382;28;20045;-74
2022/06/04 06:23:50;;;;;;;6.45;5.85;;;;;;;21.55;74.71;100513.50;5048993;28;20051;-74
2022/06/04 06:26:20;;;;;;;7.78;5.40;;;;;;;21.66;73.81;100499.91;5047225;28;20463;-74
2022/06/04 06:28:47;;;;;;;5.78;5.20;;;;;;;21.88;73.33;100503.31;5048786;28;20063;-74
2022/06/04 06:31:19;;;;;;;6.80;5.43;;;;;;;22.04;75.65;100498.22;5046187;28;20050;-75
2022/06/04 06:33:46;;;;;;;6.18;5.68;;;;;;;21.72;75.41;100498.50;5048348;28;20128;-74
2022/06/04 06:36:15;;;;;;;5.72;5.22;;;;;;;21.41;77.55;100502.28;5048715;28;20065;-74
2022/06/04 06:38:42;;;;;;;6.45;5.50;;;;;;;21.40;76.76;100508.66;5044877;28;20056;-74
2022/06/04 06:41:09;;;;;;;5.70;5.10;;;;;;;21.49;77.36;100505.13;5036152;28;20129;-75
2022/06/04 06:43:44;;;;;;;6.53;5.53;;;;;;;21.56;75.45;100508.97;5046346;28;20138;-74
2022/06/04 06:46:15;;;;;;;5.60;5.10;;;;;;;21.78;75.29;100514.09;5039422;28;20116;-74
2022/06/04 06:48:44;;;;;;;6.50;5.32;;;;;;;22.12;73.51;100505.59;5047371;28;20041;-74
2022/06/04 06:51:18;;;;;;;5.85;5.32;;;;;;;22.42;72.15;100497.31;5046359;28;20472;-74
2022/06/04 06:53:45;;;;;;;5.78;5.20;;;;;;;22.58;70.25;100502.97;5045182;28;20045;-74
2022/06/04 06:56:15;;;;;;;6.38;4.90;;;;;;;22.23;70.53;100478.47;5040760;28;20037;-77
2022/06/04 06:58:42;;;;;;;6.00;5.13;;;;;;;22.24;69.83;100496.34;5026342;28;20110;-75
2022/06/04 07:01:09;;;;;;;6.18;5.57;;;;;;;22.10;70.68;100494.97;5049860;28;20057;-75
2022/06/04 07:03:36;;;;;;;5.68;5.18;;;;;;;22.04;71.79;100507.16;5048662;28;20037;-74
2022/06/04 07:06:05;;;;;;;5.25;4.85;;;;;;;22.08;71.60;100496.94;5044808;28;20096;-73
2022/06/04 07:08:32;;;;;;;5.65;5.05;;;;;;;22.05;71.39;100495.38;5051210;28;20052;-75
2022/06/04 07:10:58;;;;;;;5.45;4.90;;;;;;;21.83;71.35;100471.38;5048984;28;20746;-74
2022/06/04 07:13:25;;;;;;;5.50;5.10;;;;;;;21.90;72.17;100504.84;5049444;28;20160;-74
2022/06/04 07:15:52;;;;;;;5.70;5.20;;;;;;;21.90;72.53;100499.47;5047702;28;20142;-74
2022/06/04 07:18:20;;;;;;;5.40;4.90;;;;;;;21.80;72.74;100474.38;5045419;28;20107;-73
2022/06/04 07:20:47;;;;;;;5.38;4.88;;;;;;;22.04;72.16;100506.31;5049671;28;20053;-74
2022/06/04 07:23:14;;;;;;;5.63;5.13;;;;;;;22.11;71.83;100495.81;5046588;28;20663;-74
2022/06/04 07:25:41;;;;;;;5.15;4.68;;;;;;;22.23;71.60;100508.13;5046790;28;20096;-73
2022/06/04 07:28:09;;;;;;;5.53;5.13;;;;;;;22.29;70.86;100513.81;5058934;28;20078;-74
2022/06/04 07:30:36;;;;;;;6.43;5.10;;;;;;;22.26;71.67;100497.06;5059437;28;20094;-73
2022/06/04 07:33:03;;;;;;;7.78;4.90;;;;;;;22.26;71.41;100495.22;5053994;28;20046;-72
2022/06/04 07:35:30;;;;;;;5.60;4.75;;;;;;;22.42;70.77;100521.59;5044844;28;20134;-73
2022/06/04 07:37:56;;;;;;;6.45;4.90;;;;;;;22.45;70.46;100518.63;5045122;28;20413;-75
2022/06/04 07:40:23;;;;;;;7.07;4.90;;;;;;;22.47;70.44;100522.03;5054897;28;20059;-77
2022/06/04 07:42:50;;;;;;;6.53;5.00;;;;;;;22.43;70.13;100519.75;5059416;28;20056;-76
2022/06/04 07:45:17;;;;;;;7.65;4.95;;;;;;;22.42;70.58;100502.72;5057314;28;20041;-81
2022/06/04 07:47:45;;;;;;;5.28;4.60;;;;;;;22.68;70.20;100522.66;5055095;28;20087;-81
2022/06/04 07:50:13;;;;;;;5.63;5.03;;;;;;;22.79;69.87;100526.25;5048603;28;20049;-78
2022/06/04 07:52:40;;;;;;;5.45;5.00;;;;;;;22.74;70.02;100519.41;5049039;28;20115;-78
2022/06/04 07:55:07;;;;;;;5.05;4.63;;;;;;;22.82;70.11;100525.94;5046932;28;20045;-75
2022/06/04 07:57:34;;;;;;;5.50;5.00;;;;;;;22.93;68.63;100523.91;5048168;28;20049;-76
2022/06/04 08:00:03;;;;;;;5.53;5.03;;;;;;;22.96;68.60;100533.56;5049762;28;20456;-78
2022/06/04 08:02:29;;;;;;;5.18;4.78;;;;;;;23.07;68.54;100545.03;5044470;28;20053;-75
2022/06/04 08:04:56;;;;;;;5.20;4.80;;;;;;;23.24;68.08;100553.34;5048445;28;20524;-73
2022/06/04 08:07:24;;;;;;;5.72;4.90;;;;;;;23.29;67.06;100538.41;5049243;28;20041;-72
2022/06/04 08:09:52;;;;;;;5.57;4.85;;;;;;;23.23;67.46;100539.00;5046919;28;20044;-77
2022/06/04 08:12:22;;;;;;;5.88;5.38;;;;;;;23.26;67.66;100538.69;5048342;28;20083;-78
2022/06/04 08:14:48;;;;;;;8.32;6.00;;;;;;;23.16;67.50;100543.28;5042033;28;20079;-76
2022/06/04 08:17:15;;;;;;;6.10;5.50;;;;;;;22.95;68.04;100526.47;5049759;28;20069;-74
2022/06/04 08:19:42;;;;;;;6.22;5.72;;;;;;;22.96;68.88;100541.66;5039557;28;20053;-73
2022/06/04 08:22:18;;;;;;;5.97;5.28;;;;;;;22.95;70.10;100548.94;5042914;28;20051;-78
2022/06/04 08:24:47;;;;;;;6.57;5.60;;;;;;;23.13;69.19;100545.44;5047504;28;20104;-77
2022/06/04 08:27:14;;;;;;;5.97;5.47;;;;;;;23.62;68.36;100547.75;5051383;28;20120;-76
2022/06/04 08:29:41;;;;;;;6.63;6.03;;;;;;;23.75;66.19;100521.22;5049923;28;20123;-74
2022/06/04 08:32:18;;;;;;;5.43;5.03;;;;;;;24.30;64.29;100531.88;5046254;28;20064;-78
2022/06/04 08:34:44;;;;;;;7.05;5.65;;;;;;;24.90;62.00;100553.59;5050119;28;20044;-76
2022/06/04 08:37:11;;;;;;;5.70;5.20;;;;;;;25.16;60.42;100551.75;5026106;28;20128;-75
2022/06/04 08:39:38;;;;;;;5.82;5.32;;;;;;;24.85;60.70;100530.72;5052378;28;20045;-76
2022/06/04 08:42:11;;;;;;;6.22;5.63;;;;;;;24.54;62.15;100554.72;5048841;28;20048;-73
2022/06/04 08:44:40;;;;;;;6.75;5.38;;;;;;;24.44;63.09;100555.66;5055159;28;20459;-76
2022/06/04 08:47:07;;;;;;;7.10;5.63;;;;;;;24.37;62.55;100564.59;5048425;28;20772;-74
2022/06/04 08:49:46;;;;;;;7.00;5.25;;;;;;;24.22;63.35;100563.41;5057112;28;20048;-79
2022/06/04 08:52:17;;;;;;;7.13;5.60;;;;;;;23.97;64.16;100557.75;5055311;28;20045;-78
2022/06/04 08:57:41;;;;;;;5.65;5.05;;;;;;;23.73;66.31;100539.44;5049048;28;20063;-79
2022/06/04 09:00:22;;;;;;;5.90;5.20;;;;;;;24.01;63.65;100561.00;5049838;28;20056;-77
2022/06/04 09:02:55;;;;;;;7.38;5.30;;;;;;;23.99;64.13;100571.97;5044225;28;20061;-74
2022/06/04 09:05:47;;;;;;;4.78;4.38;;;;;;;24.02;65.12;100576.22;5045814;28;20048;-77
2022/06/04 09:08:21;;;;;;;5.30;4.78;;;;;;;24.26;63.93;100581.03;5043564;28;20099;-74
2022/06/04 09:10:55;;;;;;;6.25;5.05;;;;;;;24.54;62.40;100576.41;5052478;28;20535;-76
2022/06/04 09:13:31;;;;;;;5.18;4.70;;;;;;;24.68;61.68;100570.41;5050501;28;20509;-75
2022/06/04 09:16:04;;;;;;;6.78;4.57;;;;;;;24.67;61.91;100579.53;5048913;28;20057;-75
2022/06/04 09:18:35;;;;;;;5.13;4.72;;;;;;;24.69;61.03;100567.53;5047388;28;20124;-74
2022/06/04 09:21:05;;;;;;;5.53;5.05;;;;;;;24.86;60.56;100573.06;5050484;28;20480;-72
2022/06/04 09:23:34;;;;;;;7.10;4.90;;;;;;;25.04;59.61;100557.59;5028253;28;20155;-71
2022/06/04 09:26:15;;;;;;;5.38;4.90;;;;;;;25.42;58.76;100576.09;5047287;28;20799;-75
2022/06/04 09:29:00;;;;;;;5.20;4.70;;;;;;;25.51;58.64;100564.25;5043293;28;20469;-77
2022/06/04 09:31:55;;;;;;;4.97;4.47;;;;;;;25.62;58.11;100573.16;5042423;28;20055;-75
2022/06/04 09:34:38;;;;;;;5.72;5.00;;;;;;;25.45;58.51;100575.78;5051028;28;20071;-76
2022/06/04 09:37:07;;;;;;;5.65;5.15;;;;;;;25.22;59.48;100573.78;5046248;28;20102;-72
2022/06/04 09:39:39;;;;;;;5.28;4.70;;;;;;;25.03;59.44;100575.72;5044438;28;20251;-71
2022/06/04 09:42:19;;;;;;;6.05;4.55;;;;;;;25.19;59.73;100574.94;5044653;28;20076;-71
2022/06/04 09:44:48;;;;;;;;;;;;;;;25.17;59.85;100571.59;5040187;28;20053;-74
2022/06/04 09:47:32;;;;;;;5.30;4.90;;;;;;;25.17;59.55;100568.88;5044315;28;20015;-74
2022/06/04 09:50:01;;;;;;;5.32;4.82;;;;;;;25.26;59.18;100559.75;5048368;28;20497;-74
2022/06/04 09:52:40;;;;;;;5.38;4.90;;;;;;;25.36;58.93;100570.47;5046977;28;20079;-72
2022/06/04 09:55:16;;;;;;;6.65;5.40;;;;;;;25.49;58.65;100570.88;5048926;28;20064;-75
2022/06/04 09:57:54;;;;;;;5.95;4.80;;;;;;;25.42;59.03;100577.94;5043181;28;20053;-74
2022/06/04 10:00:24;;;;;;;5.32;4.85;;;;;;;25.27;58.87;100575.00;5044717;28;20083;-73
2022/06/04 10:02:59;;;;;;;5.55;5.10;;;;;;;25.25;59.19;100571.59;5040070;28;20892;-72
2022/06/04 10:05:30;;;;;;;5.57;4.68;;;;;;;25.30;58.82;100574.69;5042463;28;20067;-74
2022/06/04 10:07:57;;;;;;;5.28;4.78;;;;;;;25.33;58.24;100585.22;5043662;28;20115;-71
2022/06/04 10:10:28;;;;;;;5.95;5.15;;;;;;;25.43;58.26;100576.94;5044524;28;20049;-72
2022/06/04 10:15:45;;;;;;;5.32;4.18;;;;;;;25.67;57.32;100582.47;5047029;28;20127;-74
2022/06/04 10:18:23;;;;;;;5.10;4.60;;;;;;;25.67;55.88;100574.34;5043354;28;20052;-73
2022/06/04 10:21:23;;;;;;;5.13;4.68;;;;;;;25.52;56.64;100568.66;5041050;28;20110;-73
2022/06/04 10:23:52;;;;;;;4.53;4.22;;;;;;;25.43;57.74;100556.09;5038414;28;20068;-73
2022/06/04 10:26:49;;;;;;;4.30;3.90;;;;;;;25.47;55.99;100578.31;5039262;28;20144;-74
2022/06/04 10:29:28;;;;;;;4.63;4.22;;;;;;;25.51;56.46;100577.81;5045433;28;20123;-72
2022/06/04 10:32:16;;;;;;;4.82;4.00;;;;;;;25.70;56.13;100584.84;5045439;28;20056;-73
2022/06/04 10:35:27;;;;;;;4.70;4.30;;;;;;;25.61;55.93;100564.13;5044333;28;20045;-73
2022/06/04 10:38:15;;;;;;;4.40;4.00;;;;;;;25.61;55.54;100576.84;5044284;28;20457;-72
2022/06/04 10:41:01;;;;;;;4.13;3.83;;;;;;;25.81;56.38;100592.69;5043639;28;20037;-74
2022/06/04 10:43:50;;;;;;;4.78;4.20;;;;;;;25.90;56.30;100582.72;5042016;28;20421;-73
2022/06/04 10:46:42;;;;;;;4.25;3.95;;;;;;;26.05;55.82;100572.91;5046406;28;20060;-75
2022/06/04 10:49:46;;;;;;;5.07;4.32;;;;;;;25.96;55.48;100592.91;5047216;28;20118;-78
2022/06/04 10:52:15;;;;;;;4.57;3.70;;;;;;;25.98;55.20;100579.16;5024522;28;20128;-73
2022/06/04 10:54:50;;;;;;;4.30;3.72;;;;;;;26.13;55.01;100578.31;5043725;28;20106;-78
2022/06/04 10:57:35;;;;;;;4.50;4.10;;;;;;;26.31;54.04;100599.94;5050259;28;20068;-76
2022/06/04 11:00:20;;;;;;;4.35;3.95;;;;;;;26.36;53.37;100599.44;5050395;28;20090;-74
2022/06/04 11:02:57;;;;;;;4.18;3.78;;;;;;;26.39;53.26;100601.81;5048463;28;20045;-76
2022/06/04 11:05:24;;;;;;;3.83;3.53;;;;;;;26.49;53.34;100597.91;5050199;28;20056;-72
2022/06/04 11:08:16;;;;;;;5.05;4.03;;;;;;;26.48;52.16;100589.91;5051972;28;20072;-73
2022/06/04 11:10:54;;;;;;;3.92;3.42;;;;;;;26.41;52.67;100594.34;5052142;28;20088;-72
2022/06/04 11:13:33;;;;;;;6.22;4.13;;;;;;;26.15;53.32;100570.88;5052990;28;20521;-75
2022/06/04 11:16:13;;;;;;;4.00;3.60;;;;;;;26.14;52.84;100590.88;5049568;28;20067;-75
2022/06/04 11:18:50;;;;;;;;;;;;;;;26.04;53.76;100583.94;5046733;28;20469;-74
2022/06/04 11:21:47;;;;;;;4.70;3.75;;;;;;;26.03;53.02;100583.06;5048762;28;20007;-74
2022/06/04 11:24:20;;;;;;;3.72;3.20;;;;;;;26.01;53.17;100578.81;5046288;28;20477;-74
2022/06/04 11:26:56;;;;;;;3.47;3.15;;;;;;;26.20;52.43;100578.53;5049582;28;20076;-75
2022/06/04 11:29:23;;;;;;;4.10;3.70;;;;;;;26.50;50.65;100579.75;5047451;28;20139;-73
2022/06/04 11:32:05;;;;;;;3.28;3.08;;;;;;;26.48;50.89;100579.06;5050103;28;20049;-72
2022/06/04 11:35:10;;;;;;;3.22;3.03;;;;;;;26.54;50.20;100572.97;5045711;28;20050;-75
2022/06/04 11:37:55;;;;;;;3.53;2.85;;;;;;;26.56;50.37;100557.34;5015307;28;20057;-78
2022/06/04 11:40:43;;;;;;;3.78;3.30;;;;;;;26.14;50.01;100542.03;5051813;28;20069;-83
2022/06/04 11:43:46;;;;;;;3.20;2.90;;;;;;;26.31;50.29;100582.78;5048336;28;20152;-76
2022/06/04 11:46:49;;;;;;;3.10;2.80;;;;;;;26.13;50.30;100580.22;5047744;28;20057;-79
2022/06/04 11:49:44;;;;;;;2.83;2.63;;;;;;;25.74;49.91;100588.09;5049201;28;20083;-76
2022/06/04 11:52:25;;;;;;;2.75;2.50;;;;;;;25.66;50.00;100591.63;5032711;28;20106;-78
2022/06/04 11:55:19;;;;;;;3.35;3.05;;;;;;;25.76;50.49;100588.78;5047004;28;20060;-80
2022/06/04 11:58:11;;;;;;;2.47;2.28;;;;;;;26.02;48.81;100585.94;5049189;28;20068;-77
2022/06/04 12:00:41;;;;;;;2.55;2.35;;;;;;;26.27;49.50;100579.56;5049855;28;20470;-78
2022/06/04 12:03:42;;;;;;;2.60;2.35;;;;;;;26.64;46.91;100578.19;5049877;28;20092;-77
2022/06/04 12:06:17;;;;;;;2.60;2.40;;;;;;;26.74;46.55;100565.31;5034887;28;20049;-78